sensor_id;sensor_type;location;lat;lon;timestamp;P1;durP1;ratioP1;P2;durP2;ratioP2
75104;SDS011;64778;47.314;8.466;2023-02-24T00:01:55;16.33;;;8.35;;
75104;SDS011;64778;47.314;8.466;2023-02-24T00:04:32;15.77;;;8.02;;
75104;SDS011;64778;47.314;8.466;2023-02-24T00:07:08;17.20;;;8.13;;
75104;SDS011;64778;47.314;8.466;2023-02-24T00:09:37;14.85;;;8.18;;
75104;SDS011;64778;47.314;8.466;2023-02-24T00:12:05;17.90;;;8.50;;
75104;SDS011;64778;47.314;8.466;2023-02-24T00:14:38;14.32;;;8.40;;
75104;SDS011;64778;47.314;8.466;2023-02-24T00:17:07;16.73;;;8.57;;
75104;SDS011;64778;47.314;8.466;2023-02-24T00:19:37;16.02;;;8.93;;
75104;SDS011;64778;47.314;8.466;2023-02-24T00:22:06;15.07;;;9.15;;
75104;SDS011;64778;47.314;8.466;2023-02-24T00:24:34;16.33;;;8.25;;
75104;SDS011;64778;47.314;8.466;2023-02-24T00:27:01;17.42;;;9.45;;
75104;SDS011;64778;47.314;8.466;2023-02-24T00:29:31;18.27;;;8.75;;
75104;SDS011;64778;47.314;8.466;2023-02-24T00:32:01;18.65;;;8.90;;
75104;SDS011;64778;47.314;8.466;2023-02-24T00:34:32;17.42;;;9.80;;
75104;SDS011;64778;47.314;8.466;2023-02-24T00:37:00;17.30;;;9.00;;
75104;SDS011;64778;47.314;8.466;2023-02-24T00:39:31;16.73;;;9.50;;
75104;SDS011;64778;47.314;8.466;2023-02-24T00:42:04;17.48;;;8.60;;
75104;SDS011;64778;47.314;8.466;2023-02-24T00:44:31;16.83;;;8.57;;
75104;SDS011;64778;47.314;8.466;2023-02-24T00:47:00;15.82;;;8.00;;
75104;SDS011;64778;47.314;8.466;2023-02-24T00:49:29;17.85;;;8.60;;
75104;SDS011;64778;47.314;8.466;2023-02-24T00:51:56;17.23;;;8.55;;
75104;SDS011;64778;47.314;8.466;2023-02-24T00:54:22;18.55;;;9.00;;
75104;SDS011;64778;47.314;8.466;2023-02-24T00:56:51;17.52;;;8.95;;
75104;SDS011;64778;47.314;8.466;2023-02-24T00:59:17;16.67;;;9.20;;
75104;SDS011;64778;47.314;8.466;2023-02-24T01:01:47;16.00;;;9.05;;
75104;SDS011;64778;47.314;8.466;2023-02-24T01:04:15;16.00;;;9.40;;
75104;SDS011;64778;47.314;8.466;2023-02-24T01:06:45;17.25;;;9.15;;
75104;SDS011;64778;47.314;8.466;2023-02-24T01:09:19;17.47;;;8.93;;
75104;SDS011;64778;47.314;8.466;2023-02-24T01:11:48;16.27;;;8.68;;
75104;SDS011;64778;47.314;8.466;2023-02-24T01:14:46;19.13;;;9.02;;
75104;SDS011;64778;47.314;8.466;2023-02-24T01:17:18;17.10;;;8.63;;
75104;SDS011;64778;47.314;8.466;2023-02-24T01:19:47;16.13;;;9.30;;
75104;SDS011;64778;47.314;8.466;2023-02-24T01:22:14;16.52;;;9.50;;
75104;SDS011;64778;47.314;8.466;2023-02-24T01:24:43;15.88;;;8.82;;
75104;SDS011;64778;47.314;8.466;2023-02-24T01:27:10;19.08;;;9.15;;
75104;SDS011;64778;47.314;8.466;2023-02-24T01:29:37;15.37;;;9.10;;
75104;SDS011;64778;47.314;8.466;2023-02-24T01:32:10;18.63;;;9.68;;
75104;SDS011;64778;47.314;8.466;2023-02-24T01:34:40;13.73;;;8.60;;
75104;SDS011;64778;47.314;8.466;2023-02-24T01:37:06;17.92;;;9.20;;
75104;SDS011;64778;47.314;8.466;2023-02-24T01:39:34;18.05;;;8.88;;
75104;SDS011;64778;47.314;8.466;2023-02-24T01:42:05;18.25;;;9.65;;
75104;SDS011;64778;47.314;8.466;2023-02-24T01:46:58;17.37;;;8.97;;
75104;SDS011;64778;47.314;8.466;2023-02-24T01:49:45;19.55;;;9.10;;
75104;SDS011;64778;47.314;8.466;2023-02-24T01:54:45;16.45;;;8.38;;
75104;SDS011;64778;47.314;8.466;2023-02-24T01:57:19;18.60;;;9.77;;
75104;SDS011;64778;47.314;8.466;2023-02-24T01:59:48;16.08;;;8.75;;
75104;SDS011;64778;47.314;8.466;2023-02-24T02:02:22;20.60;;;10.38;;
75104;SDS011;64778;47.314;8.466;2023-02-24T02:05:02;24.77;;;11.25;;
75104;SDS011;64778;47.314;8.466;2023-02-24T02:07:30;22.55;;;10.63;;
75104;SDS011;64778;47.314;8.466;2023-02-24T02:09:58;17.23;;;9.50;;
75104;SDS011;64778;47.314;8.466;2023-02-24T02:12:28;17.83;;;9.48;;
75104;SDS011;64778;47.314;8.466;2023-02-24T02:14:56;16.35;;;9.35;;
75104;SDS011;64778;47.314;8.466;2023-02-24T02:17:29;14.88;;;8.90;;
75104;SDS011;64778;47.314;8.466;2023-02-24T02:28:25;18.15;;;8.23;;
75104;SDS011;64778;47.314;8.466;2023-02-24T02:34:02;15.57;;;8.52;;
75104;SDS011;64778;47.314;8.466;2023-02-24T02:36:56;14.90;;;8.65;;
75104;SDS011;64778;47.314;8.466;2023-02-24T02:53:13;14.68;;;9.52;;
75104;SDS011;64778;47.314;8.466;2023-02-24T02:55:44;16.08;;;9.02;;
75104;SDS011;64778;47.314;8.466;2023-02-24T02:58:30;16.42;;;9.32;;
75104;SDS011;64778;47.314;8.466;2023-02-24T03:01:00;15.85;;;9.10;;
75104;SDS011;64778;47.314;8.466;2023-02-24T03:03:42;15.97;;;8.90;;
75104;SDS011;64778;47.314;8.466;2023-02-24T03:06:17;14.85;;;8.80;;
75104;SDS011;64778;47.314;8.466;2023-02-24T03:09:10;16.20;;;8.60;;
75104;SDS011;64778;47.314;8.466;2023-02-24T03:11:42;17.17;;;9.30;;
75104;SDS011;64778;47.314;8.466;2023-02-24T03:14:13;17.60;;;9.00;;
75104;SDS011;64778;47.314;8.466;2023-02-24T03:16:43;15.52;;;9.05;;
75104;SDS011;64778;47.314;8.466;2023-02-24T03:19:11;15.18;;;8.75;;
75104;SDS011;64778;47.314;8.466;2023-02-24T03:21:44;15.77;;;9.50;;
75104;SDS011;64778;47.314;8.466;2023-02-24T03:24:19;19.67;;;10.35;;
75104;SDS011;64778;47.314;8.466;2023-02-24T03:26:46;20.02;;;10.80;;
75104;SDS011;64778;47.314;8.466;2023-02-24T03:35:00;21.00;;;11.50;;
75104;SDS011;64778;47.314;8.466;2023-02-24T03:37:35;23.10;;;11.23;;
75104;SDS011;64778;47.314;8.466;2023-02-24T03:40:03;19.47;;;10.90;;
75104;SDS011;64778;47.314;8.466;2023-02-24T03:42:35;23.48;;;12.40;;
75104;SDS011;64778;47.314;8.466;2023-02-24T03:45:08;21.35;;;12.70;;
75104;SDS011;64778;47.314;8.466;2023-02-24T03:47:35;24.33;;;13.15;;
75104;SDS011;64778;47.314;8.466;2023-02-24T03:50:01;23.52;;;13.95;;
75104;SDS011;64778;47.314;8.466;2023-02-24T04:02:53;25.55;;;15.73;;
75104;SDS011;64778;47.314;8.466;2023-02-24T04:05:27;24.30;;;14.10;;
75104;SDS011;64778;47.314;8.466;2023-02-24T04:08:01;25.27;;;14.27;;
75104;SDS011;64778;47.314;8.466;2023-02-24T04:10:30;28.60;;;14.80;;
75104;SDS011;64778;47.314;8.466;2023-02-24T04:13:01;23.60;;;14.55;;
75104;SDS011;64778;47.314;8.466;2023-02-24T04:15:40;23.52;;;13.23;;
75104;SDS011;64778;47.314;8.466;2023-02-24T04:18:40;27.90;;;15.85;;
75104;SDS011;64778;47.314;8.466;2023-02-24T04:21:00;32.25;;;15.88;;
75104;SDS011;64778;47.314;8.466;2023-02-24T04:23:29;24.92;;;14.80;;
75104;SDS011;64778;47.314;8.466;2023-02-24T04:26:02;26.25;;;14.00;;
75104;SDS011;64778;47.314;8.466;2023-02-24T04:28:30;28.73;;;16.63;;
75104;SDS011;64778;47.314;8.466;2023-02-24T04:30:57;29.63;;;16.55;;
75104;SDS011;64778;47.314;8.466;2023-02-24T04:33:30;28.73;;;16.17;;
75104;SDS011;64778;47.314;8.466;2023-02-24T04:35:59;25.48;;;14.60;;
75104;SDS011;64778;47.314;8.466;2023-02-24T04:38:25;24.95;;;13.77;;
75104;SDS011;64778;47.314;8.466;2023-02-24T04:40:51;21.77;;;13.77;;
75104;SDS011;64778;47.314;8.466;2023-02-24T04:43:19;24.33;;;14.40;;
75104;SDS011;64778;47.314;8.466;2023-02-24T04:45:47;25.00;;;14.25;;
75104;SDS011;64778;47.314;8.466;2023-02-24T04:48:17;23.60;;;14.50;;
75104;SDS011;64778;47.314;8.466;2023-02-24T04:50:45;24.27;;;14.13;;
75104;SDS011;64778;47.314;8.466;2023-02-24T04:53:13;25.33;;;14.35;;
75104;SDS011;64778;47.314;8.466;2023-02-24T04:55:41;22.75;;;13.98;;
75104;SDS011;64778;47.314;8.466;2023-02-24T04:58:16;27.73;;;14.38;;
75104;SDS011;64778;47.314;8.466;2023-02-24T05:00:44;24.00;;;13.53;;
75104;SDS011;64778;47.314;8.466;2023-02-24T05:03:17;23.83;;;14.20;;
75104;SDS011;64778;47.314;8.466;2023-02-24T05:05:49;21.83;;;13.35;;
75104;SDS011;64778;47.314;8.466;2023-02-24T05:08:18;20.83;;;12.90;;
75104;SDS011;64778;47.314;8.466;2023-02-24T05:10:44;21.50;;;12.90;;
75104;SDS011;64778;47.314;8.466;2023-02-24T05:13:21;22.48;;;13.05;;
75104;SDS011;64778;47.314;8.466;2023-02-24T05:15:52;23.70;;;13.50;;
75104;SDS011;64778;47.314;8.466;2023-02-24T05:18:34;21.77;;;13.15;;
75104;SDS011;64778;47.314;8.466;2023-02-24T05:21:07;24.52;;;13.30;;
75104;SDS011;64778;47.314;8.466;2023-02-24T05:23:55;22.98;;;13.35;;
75104;SDS011;64778;47.314;8.466;2023-02-24T05:26:25;19.85;;;12.63;;
75104;SDS011;64778;47.314;8.466;2023-02-24T05:28:52;24.25;;;13.43;;
75104;SDS011;64778;47.314;8.466;2023-02-24T05:31:27;22.60;;;14.88;;
75104;SDS011;64778;47.314;8.466;2023-02-24T05:33:58;23.80;;;14.50;;
75104;SDS011;64778;47.314;8.466;2023-02-24T05:36:27;22.42;;;13.60;;
75104;SDS011;64778;47.314;8.466;2023-02-24T05:38:58;22.80;;;13.85;;
75104;SDS011;64778;47.314;8.466;2023-02-24T05:41:30;21.87;;;13.37;;
75104;SDS011;64778;47.314;8.466;2023-02-24T05:44:07;25.50;;;14.40;;
75104;SDS011;64778;47.314;8.466;2023-02-24T05:46:40;22.30;;;14.18;;
75104;SDS011;64778;47.314;8.466;2023-02-24T05:49:20;23.98;;;13.85;;
75104;SDS011;64778;47.314;8.466;2023-02-24T05:51:48;23.05;;;13.70;;
75104;SDS011;64778;47.314;8.466;2023-02-24T05:54:24;23.92;;;13.85;;
75104;SDS011;64778;47.314;8.466;2023-02-24T05:56:53;22.60;;;13.68;;
75104;SDS011;64778;47.314;8.466;2023-02-24T05:59:24;24.45;;;14.80;;
75104;SDS011;64778;47.314;8.466;2023-02-24T06:01:57;24.83;;;15.30;;
75104;SDS011;64778;47.314;8.466;2023-02-24T06:04:24;26.35;;;16.25;;
75104;SDS011;64778;47.314;8.466;2023-02-24T06:07:03;31.90;;;17.05;;
75104;SDS011;64778;47.314;8.466;2023-02-24T06:09:42;34.53;;;17.25;;
75104;SDS011;64778;47.314;8.466;2023-02-24T06:12:14;28.48;;;15.95;;
75104;SDS011;64778;47.314;8.466;2023-02-24T06:14:40;30.27;;;16.17;;
75104;SDS011;64778;47.314;8.466;2023-02-24T06:17:06;32.10;;;16.88;;
75104;SDS011;64778;47.314;8.466;2023-02-24T06:19:32;28.67;;;16.08;;
75104;SDS011;64778;47.314;8.466;2023-02-24T06:22:00;27.38;;;15.98;;
75104;SDS011;64778;47.314;8.466;2023-02-24T06:24:31;27.58;;;15.45;;
75104;SDS011;64778;47.314;8.466;2023-02-24T06:26:59;24.83;;;14.57;;
75104;SDS011;64778;47.314;8.466;2023-02-24T06:29:33;26.13;;;15.23;;
75104;SDS011;64778;47.314;8.466;2023-02-24T06:32:02;23.50;;;14.32;;
75104;SDS011;64778;47.314;8.466;2023-02-24T06:34:32;24.73;;;13.98;;
75104;SDS011;64778;47.314;8.466;2023-02-24T06:37:02;23.17;;;14.27;;
75104;SDS011;64778;47.314;8.466;2023-02-24T06:39:29;24.73;;;14.50;;
75104;SDS011;64778;47.314;8.466;2023-02-24T06:41:58;21.38;;;13.73;;
75104;SDS011;64778;47.314;8.466;2023-02-24T06:44:31;25.25;;;14.90;;
75104;SDS011;64778;47.314;8.466;2023-02-24T06:46:57;27.05;;;14.30;;
75104;SDS011;64778;47.314;8.466;2023-02-24T06:49:23;22.55;;;14.00;;
75104;SDS011;64778;47.314;8.466;2023-02-24T06:51:53;20.70;;;13.20;;
75104;SDS011;64778;47.314;8.466;2023-02-24T06:54:22;23.73;;;13.80;;
75104;SDS011;64778;47.314;8.466;2023-02-24T06:56:52;21.83;;;11.68;;
75104;SDS011;64778;47.314;8.466;2023-02-24T06:59:23;18.60;;;11.18;;
75104;SDS011;64778;47.314;8.466;2023-02-24T07:01:55;22.40;;;14.43;;
75104;SDS011;64778;47.314;8.466;2023-02-24T07:04:25;22.00;;;13.50;;
75104;SDS011;64778;47.314;8.466;2023-02-24T07:06:57;24.70;;;14.32;;
75104;SDS011;64778;47.314;8.466;2023-02-24T07:09:27;22.10;;;13.93;;
75104;SDS011;64778;47.314;8.466;2023-02-24T07:11:55;22.67;;;14.67;;
75104;SDS011;64778;47.314;8.466;2023-02-24T07:14:23;25.75;;;15.35;;
75104;SDS011;64778;47.314;8.466;2023-02-24T07:16:51;27.75;;;15.30;;
75104;SDS011;64778;47.314;8.466;2023-02-24T07:19:25;27.17;;;16.20;;
75104;SDS011;64778;47.314;8.466;2023-02-24T07:21:57;26.20;;;16.20;;
75104;SDS011;64778;47.314;8.466;2023-02-24T07:24:29;24.30;;;15.27;;
75104;SDS011;64778;47.314;8.466;2023-02-24T07:27:13;26.25;;;15.90;;
75104;SDS011;64778;47.314;8.466;2023-02-24T07:29:46;29.48;;;15.60;;
75104;SDS011;64778;47.314;8.466;2023-02-24T07:32:15;27.50;;;15.70;;
75104;SDS011;64778;47.314;8.466;2023-02-24T07:34:42;40.15;;;25.70;;
75104;SDS011;64778;47.314;8.466;2023-02-24T07:37:17;30.33;;;18.80;;
75104;SDS011;64778;47.314;8.466;2023-02-24T07:39:47;25.33;;;15.68;;
75104;SDS011;64778;47.314;8.466;2023-02-24T07:42:18;25.77;;;15.33;;
75104;SDS011;64778;47.314;8.466;2023-02-24T07:44:54;27.13;;;17.17;;
75104;SDS011;64778;47.314;8.466;2023-02-24T07:47:22;27.10;;;16.48;;
75104;SDS011;64778;47.314;8.466;2023-02-24T07:49:49;29.65;;;16.55;;
75104;SDS011;64778;47.314;8.466;2023-02-24T07:52:17;26.25;;;15.15;;
75104;SDS011;64778;47.314;8.466;2023-02-24T07:54:43;25.90;;;15.52;;
75104;SDS011;64778;47.314;8.466;2023-02-24T07:57:08;24.40;;;14.85;;
75104;SDS011;64778;47.314;8.466;2023-02-24T07:59:37;23.38;;;15.02;;
75104;SDS011;64778;47.314;8.466;2023-02-24T08:02:03;26.95;;;15.50;;
75104;SDS011;64778;47.314;8.466;2023-02-24T08:04:35;26.63;;;15.77;;
75104;SDS011;64778;47.314;8.466;2023-02-24T08:07:12;26.50;;;16.08;;
75104;SDS011;64778;47.314;8.466;2023-02-24T08:09:40;26.90;;;15.63;;
75104;SDS011;64778;47.314;8.466;2023-02-24T08:14:42;39.10;;;24.33;;
75104;SDS011;64778;47.314;8.466;2023-02-24T08:17:15;31.70;;;21.50;;
75104;SDS011;64778;47.314;8.466;2023-02-24T08:19:46;27.08;;;15.45;;
75104;SDS011;64778;47.314;8.466;2023-02-24T08:22:13;23.80;;;15.13;;
75104;SDS011;64778;47.314;8.466;2023-02-24T08:27:25;26.70;;;14.80;;
75104;SDS011;64778;47.314;8.466;2023-02-24T08:29:57;25.27;;;15.02;;
75104;SDS011;64778;47.314;8.466;2023-02-24T08:35:05;26.35;;;14.85;;
75104;SDS011;64778;47.314;8.466;2023-02-24T08:37:41;27.03;;;14.83;;
75104;SDS011;64778;47.314;8.466;2023-02-24T08:42:56;25.90;;;14.70;;
75104;SDS011;64778;47.314;8.466;2023-02-24T08:45:40;23.20;;;14.50;;
75104;SDS011;64778;47.314;8.466;2023-02-24T08:48:13;21.65;;;14.75;;
75104;SDS011;64778;47.314;8.466;2023-02-24T08:50:50;25.90;;;15.45;;
75104;SDS011;64778;47.314;8.466;2023-02-24T08:53:17;23.13;;;14.55;;
75104;SDS011;64778;47.314;8.466;2023-02-24T08:55:47;23.52;;;14.48;;
75104;SDS011;64778;47.314;8.466;2023-02-24T08:58:16;23.17;;;14.83;;
75104;SDS011;64778;47.314;8.466;2023-02-24T09:00:51;26.33;;;14.65;;
75104;SDS011;64778;47.314;8.466;2023-02-24T09:03:20;25.23;;;15.00;;
75104;SDS011;64778;47.314;8.466;2023-02-24T09:08:33;29.40;;;14.90;;
75104;SDS011;64778;47.314;8.466;2023-02-24T09:11:08;23.08;;;15.20;;
75104;SDS011;64778;47.314;8.466;2023-02-24T09:13:41;24.08;;;14.57;;
75104;SDS011;64778;47.314;8.466;2023-02-24T09:16:22;22.38;;;12.75;;
75104;SDS011;64778;47.314;8.466;2023-02-24T09:18:50;27.63;;;14.70;;
75104;SDS011;64778;47.314;8.466;2023-02-24T09:21:40;21.70;;;13.40;;
75104;SDS011;64778;47.314;8.466;2023-02-24T09:24:30;20.08;;;12.60;;
75104;SDS011;64778;47.314;8.466;2023-02-24T09:26:56;23.77;;;11.75;;
75104;SDS011;64778;47.314;8.466;2023-02-24T09:29:24;18.95;;;10.10;;
75104;SDS011;64778;47.314;8.466;2023-02-24T09:32:13;20.17;;;10.40;;
75104;SDS011;64778;47.314;8.466;2023-02-24T09:34:40;17.90;;;10.18;;
75104;SDS011;64778;47.314;8.466;2023-02-24T09:37:08;19.13;;;10.68;;
75104;SDS011;64778;47.314;8.466;2023-02-24T09:39:49;18.10;;;9.80;;
75104;SDS011;64778;47.314;8.466;2023-02-24T09:42:28;19.35;;;10.60;;
75104;SDS011;64778;47.314;8.466;2023-02-24T09:45:12;20.80;;;10.77;;
75104;SDS011;64778;47.314;8.466;2023-02-24T09:47:56;19.70;;;11.57;;
75104;SDS011;64778;47.314;8.466;2023-02-24T09:50:34;17.90;;;9.60;;
75104;SDS011;64778;47.314;8.466;2023-02-24T09:53:27;23.35;;;10.18;;
75104;SDS011;64778;47.314;8.466;2023-02-24T11:11:42;13.85;;;6.88;;
75104;SDS011;64778;47.314;8.466;2023-02-24T11:14:28;17.52;;;7.00;;
75104;SDS011;64778;47.314;8.466;2023-02-24T11:17:19;14.18;;;6.97;;
75104;SDS011;64778;47.314;8.466;2023-02-24T11:19:57;12.40;;;6.97;;
75104;SDS011;64778;47.314;8.466;2023-02-24T11:22:32;12.23;;;6.40;;
75104;SDS011;64778;47.314;8.466;2023-02-24T11:25:10;19.40;;;7.07;;
75104;SDS011;64778;47.314;8.466;2023-02-24T11:27:50;17.40;;;7.00;;
75104;SDS011;64778;47.314;8.466;2023-02-24T13:21:42;28.52;;;5.57;;
75104;SDS011;64778;47.314;8.466;2023-02-24T13:24:19;18.23;;;4.57;;
75104;SDS011;64778;47.314;8.466;2023-02-24T13:26:48;26.20;;;5.80;;
75104;SDS011;64778;47.314;8.466;2023-02-24T13:29:16;20.40;;;5.15;;
75104;SDS011;64778;47.314;8.466;2023-02-24T13:31:46;23.63;;;5.43;;
75104;SDS011;64778;47.314;8.466;2023-02-24T14:03:35;18.33;;;7.15;;
75104;SDS011;64778;47.314;8.466;2023-02-24T14:08:44;20.77;;;6.50;;
75104;SDS011;64778;47.314;8.466;2023-02-24T14:11:17;24.48;;;7.75;;
75104;SDS011;64778;47.314;8.466;2023-02-24T14:13:48;21.70;;;6.78;;
75104;SDS011;64778;47.314;8.466;2023-02-24T14:16:19;18.73;;;6.57;;
75104;SDS011;64778;47.314;8.466;2023-02-24T14:18:56;25.77;;;6.82;;
75104;SDS011;64778;47.314;8.466;2023-02-24T14:21:26;24.52;;;6.60;;
75104;SDS011;64778;47.314;8.466;2023-02-24T14:26:21;23.48;;;6.97;;
75104;SDS011;64778;47.314;8.466;2023-02-24T14:28:57;23.77;;;6.78;;
75104;SDS011;64778;47.314;8.466;2023-02-24T14:56:15;17.55;;;6.05;;
75104;SDS011;64778;47.314;8.466;2023-02-24T14:58:46;20.90;;;6.55;;
75104;SDS011;64778;47.314;8.466;2023-02-24T15:01:32;23.07;;;6.03;;
75104;SDS011;64778;47.314;8.466;2023-02-24T15:04:14;17.80;;;5.72;;
75104;SDS011;64778;47.314;8.466;2023-02-24T16:34:35;13.20;;;3.35;;
75104;SDS011;64778;47.314;8.466;2023-02-24T16:37:08;14.50;;;4.13;;
